sensor_id;sensor_type;location;lat;lon;timestamp;P1;durP1;ratioP1;P2;durP2;ratioP2
18651;SDS011;9455;54.302;10.124;2024-03-17T00:00:01;9.70;;;1.63;;
18651;SDS011;9455;54.302;10.124;2024-03-17T00:02:27;8.07;;;2.23;;
18651;SDS011;9455;54.302;10.124;2024-03-17T00:04:55;9.00;;;1.43;;
18651;SDS011;9455;54.302;10.124;2024-03-17T00:07:21;19.13;;;1.50;;
18651;SDS011;9455;54.302;10.124;2024-03-17T00:09:47;20.10;;;2.43;;
18651;SDS011;9455;54.302;10.124;2024-03-17T00:12:13;15.17;;;2.00;;
18651;SDS011;9455;54.302;10.124;2024-03-17T00:14:40;8.00;;;1.47;;
18651;SDS011;9455;54.302;10.124;2024-03-17T00:17:07;7.10;;;1.83;;
18651;SDS011;9455;54.302;10.124;2024-03-17T00:19:34;20.10;;;2.00;;
18651;SDS011;9455;54.302;10.124;2024-03-17T00:22:02;17.00;;;2.23;;
18651;SDS011;9455;54.302;10.124;2024-03-17T00:24:30;17.93;;;1.70;;
18651;SDS011;9455;54.302;10.124;2024-03-17T00:26:59;10.43;;;3.03;;
18651;SDS011;9455;54.302;10.124;2024-03-17T00:29:26;5.90;;;2.20;;
18651;SDS011;9455;54.302;10.124;2024-03-17T00:31:53;22.93;;;2.30;;
18651;SDS011;9455;54.302;10.124;2024-03-17T00:34:20;15.60;;;1.53;;
18651;SDS011;9455;54.302;10.124;2024-03-17T00:36:45;9.40;;;2.23;;
18651;SDS011;9455;54.302;10.124;2024-03-17T00:39:13;14.53;;;2.10;;
18651;SDS011;9455;54.302;10.124;2024-03-17T00:41:39;9.83;;;2.27;;
18651;SDS011;9455;54.302;10.124;2024-03-17T00:44:06;16.87;;;1.97;;
18651;SDS011;9455;54.302;10.124;2024-03-17T00:46:31;6.47;;;1.43;;
18651;SDS011;9455;54.302;10.124;2024-03-17T00:48:58;18.50;;;1.93;;
18651;SDS011;9455;54.302;10.124;2024-03-17T00:51:25;10.57;;;1.30;;
18651;SDS011;9455;54.302;10.124;2024-03-17T00:53:51;12.60;;;1.37;;
18651;SDS011;9455;54.302;10.124;2024-03-17T00:56:18;9.37;;;1.63;;
18651;SDS011;9455;54.302;10.124;2024-03-17T00:58:45;8.27;;;1.70;;
18651;SDS011;9455;54.302;10.124;2024-03-17T01:01:12;17.57;;;2.30;;
18651;SDS011;9455;54.302;10.124;2024-03-17T01:03:38;21.47;;;2.23;;
18651;SDS011;9455;54.302;10.124;2024-03-17T01:06:04;11.63;;;1.57;;
18651;SDS011;9455;54.302;10.124;2024-03-17T01:08:31;9.27;;;1.40;;
18651;SDS011;9455;54.302;10.124;2024-03-17T01:10:57;8.73;;;2.00;;
18651;SDS011;9455;54.302;10.124;2024-03-17T01:13:25;11.17;;;1.30;;
18651;SDS011;9455;54.302;10.124;2024-03-17T01:15:51;10.77;;;1.73;;
18651;SDS011;9455;54.302;10.124;2024-03-17T01:18:18;9.13;;;2.27;;
18651;SDS011;9455;54.302;10.124;2024-03-17T01:20:43;8.27;;;2.00;;
18651;SDS011;9455;54.302;10.124;2024-03-17T01:23:11;13.43;;;1.77;;
18651;SDS011;9455;54.302;10.124;2024-03-17T01:25:36;8.23;;;1.97;;
18651;SDS011;9455;54.302;10.124;2024-03-17T01:28:03;14.03;;;1.60;;
18651;SDS011;9455;54.302;10.124;2024-03-17T01:30:30;16.50;;;1.80;;
18651;SDS011;9455;54.302;10.124;2024-03-17T01:32:57;11.47;;;1.90;;
18651;SDS011;9455;54.302;10.124;2024-03-17T01:35:24;10.47;;;1.27;;
18651;SDS011;9455;54.302;10.124;2024-03-17T01:37:51;18.90;;;2.23;;
18651;SDS011;9455;54.302;10.124;2024-03-17T01:40:17;6.30;;;1.37;;
18651;SDS011;9455;54.302;10.124;2024-03-17T01:42:43;9.77;;;1.93;;
18651;SDS011;9455;54.302;10.124;2024-03-17T01:45:20;13.80;;;2.00;;
18651;SDS011;9455;54.302;10.124;2024-03-17T01:47:54;14.30;;;2.10;;
18651;SDS011;9455;54.302;10.124;2024-03-17T01:50:23;20.93;;;2.70;;
18651;SDS011;9455;54.302;10.124;2024-03-17T01:52:51;9.97;;;1.80;;
18651;SDS011;9455;54.302;10.124;2024-03-17T01:55:19;5.43;;;1.47;;
18651;SDS011;9455;54.302;10.124;2024-03-17T01:57:47;11.23;;;2.33;;
18651;SDS011;9455;54.302;10.124;2024-03-17T02:00:13;7.73;;;1.40;;
18651;SDS011;9455;54.302;10.124;2024-03-17T02:02:40;13.33;;;1.83;;
18651;SDS011;9455;54.302;10.124;2024-03-17T02:05:07;11.57;;;1.83;;
18651;SDS011;9455;54.302;10.124;2024-03-17T02:07:35;7.90;;;1.70;;
18651;SDS011;9455;54.302;10.124;2024-03-17T02:10:01;14.20;;;2.07;;
18651;SDS011;9455;54.302;10.124;2024-03-17T02:12:29;18.23;;;2.20;;
18651;SDS011;9455;54.302;10.124;2024-03-17T02:14:56;2.10;;;1.40;;
18651;SDS011;9455;54.302;10.124;2024-03-17T02:17:23;7.23;;;1.50;;
18651;SDS011;9455;54.302;10.124;2024-03-17T02:19:50;14.17;;;1.40;;
18651;SDS011;9455;54.302;10.124;2024-03-17T02:22:18;18.13;;;2.10;;
18651;SDS011;9455;54.302;10.124;2024-03-17T02:24:44;5.93;;;1.80;;
18651;SDS011;9455;54.302;10.124;2024-03-17T02:27:11;7.70;;;1.60;;
18651;SDS011;9455;54.302;10.124;2024-03-17T02:29:37;17.73;;;1.93;;
18651;SDS011;9455;54.302;10.124;2024-03-17T02:32:04;11.60;;;2.17;;
18651;SDS011;9455;54.302;10.124;2024-03-17T02:34:32;15.67;;;2.77;;
18651;SDS011;9455;54.302;10.124;2024-03-17T02:36:59;5.20;;;1.50;;
18651;SDS011;9455;54.302;10.124;2024-03-17T02:39:26;13.60;;;2.83;;
18651;SDS011;9455;54.302;10.124;2024-03-17T02:42:00;9.53;;;1.97;;
18651;SDS011;9455;54.302;10.124;2024-03-17T02:44:28;4.27;;;1.20;;
18651;SDS011;9455;54.302;10.124;2024-03-17T02:46:55;11.43;;;2.20;;
18651;SDS011;9455;54.302;10.124;2024-03-17T02:49:22;2.60;;;1.37;;
18651;SDS011;9455;54.302;10.124;2024-03-17T02:51:49;7.37;;;1.57;;
18651;SDS011;9455;54.302;10.124;2024-03-17T02:54:15;7.87;;;1.50;;
18651;SDS011;9455;54.302;10.124;2024-03-17T02:56:43;17.70;;;2.60;;
18651;SDS011;9455;54.302;10.124;2024-03-17T02:59:10;14.13;;;1.60;;
18651;SDS011;9455;54.302;10.124;2024-03-17T03:01:36;15.70;;;2.30;;
18651;SDS011;9455;54.302;10.124;2024-03-17T03:04:03;13.70;;;2.53;;
18651;SDS011;9455;54.302;10.124;2024-03-17T03:06:31;9.57;;;1.80;;
18651;SDS011;9455;54.302;10.124;2024-03-17T03:08:58;11.10;;;1.47;;
18651;SDS011;9455;54.302;10.124;2024-03-17T03:11:24;18.97;;;1.60;;
18651;SDS011;9455;54.302;10.124;2024-03-17T03:13:52;10.57;;;1.77;;
18651;SDS011;9455;54.302;10.124;2024-03-17T03:16:19;13.80;;;2.17;;
18651;SDS011;9455;54.302;10.124;2024-03-17T03:18:46;20.90;;;2.20;;
18651;SDS011;9455;54.302;10.124;2024-03-17T03:21:12;4.23;;;1.63;;
18651;SDS011;9455;54.302;10.124;2024-03-17T03:23:39;8.80;;;1.77;;
18651;SDS011;9455;54.302;10.124;2024-03-17T03:26:05;7.40;;;1.80;;
18651;SDS011;9455;54.302;10.124;2024-03-17T03:28:34;7.20;;;2.53;;
18651;SDS011;9455;54.302;10.124;2024-03-17T03:31:03;17.47;;;1.80;;
18651;SDS011;9455;54.302;10.124;2024-03-17T03:33:32;3.27;;;1.53;;
18651;SDS011;9455;54.302;10.124;2024-03-17T03:35:58;8.00;;;1.50;;
18651;SDS011;9455;54.302;10.124;2024-03-17T03:38:25;2.77;;;1.90;;
18651;SDS011;9455;54.302;10.124;2024-03-17T03:40:51;7.97;;;2.00;;
18651;SDS011;9455;54.302;10.124;2024-03-17T03:43:18;5.30;;;1.40;;
18651;SDS011;9455;54.302;10.124;2024-03-17T03:45:45;8.03;;;1.70;;
18651;SDS011;9455;54.302;10.124;2024-03-17T03:48:13;8.00;;;1.43;;
18651;SDS011;9455;54.302;10.124;2024-03-17T03:50:39;4.53;;;1.73;;
18651;SDS011;9455;54.302;10.124;2024-03-17T03:53:06;11.17;;;1.70;;
18651;SDS011;9455;54.302;10.124;2024-03-17T03:55:33;8.07;;;1.40;;
18651;SDS011;9455;54.302;10.124;2024-03-17T03:57:59;13.67;;;2.07;;
18651;SDS011;9455;54.302;10.124;2024-03-17T04:00:28;17.40;;;3.00;;
18651;SDS011;9455;54.302;10.124;2024-03-17T04:02:57;4.03;;;1.27;;
18651;SDS011;9455;54.302;10.124;2024-03-17T04:05:25;7.17;;;1.10;;
18651;SDS011;9455;54.302;10.124;2024-03-17T04:07:52;7.70;;;1.40;;
18651;SDS011;9455;54.302;10.124;2024-03-17T04:10:19;8.77;;;1.50;;
18651;SDS011;9455;54.302;10.124;2024-03-17T04:12:46;4.43;;;1.50;;
18651;SDS011;9455;54.302;10.124;2024-03-17T04:15:12;8.87;;;1.30;;
18651;SDS011;9455;54.302;10.124;2024-03-17T04:17:39;8.07;;;1.50;;
18651;SDS011;9455;54.302;10.124;2024-03-17T04:20:07;7.10;;;1.50;;
18651;SDS011;9455;54.302;10.124;2024-03-17T04:22:37;12.30;;;1.97;;
18651;SDS011;9455;54.302;10.124;2024-03-17T04:25:04;7.50;;;2.30;;
18651;SDS011;9455;54.302;10.124;2024-03-17T04:27:31;10.03;;;2.43;;
18651;SDS011;9455;54.302;10.124;2024-03-17T04:29:58;8.90;;;1.20;;
18651;SDS011;9455;54.302;10.124;2024-03-17T04:32:26;9.63;;;1.63;;
18651;SDS011;9455;54.302;10.124;2024-03-17T04:34:53;14.03;;;1.90;;
18651;SDS011;9455;54.302;10.124;2024-03-17T04:37:19;9.00;;;1.80;;
18651;SDS011;9455;54.302;10.124;2024-03-17T04:39:48;10.50;;;1.87;;
18651;SDS011;9455;54.302;10.124;2024-03-17T04:42:16;13.40;;;2.83;;
18651;SDS011;9455;54.302;10.124;2024-03-17T04:44:44;7.23;;;2.07;;
18651;SDS011;9455;54.302;10.124;2024-03-17T04:47:12;5.67;;;2.00;;
18651;SDS011;9455;54.302;10.124;2024-03-17T04:49:39;6.47;;;2.00;;
18651;SDS011;9455;54.302;10.124;2024-03-17T04:52:07;5.50;;;2.10;;
18651;SDS011;9455;54.302;10.124;2024-03-17T04:54:35;4.37;;;1.70;;
18651;SDS011;9455;54.302;10.124;2024-03-17T04:57:03;13.10;;;3.10;;
18651;SDS011;9455;54.302;10.124;2024-03-17T04:59:29;15.30;;;1.93;;
18651;SDS011;9455;54.302;10.124;2024-03-17T05:01:59;7.47;;;1.67;;
18651;SDS011;9455;54.302;10.124;2024-03-17T05:04:27;11.40;;;2.27;;
18651;SDS011;9455;54.302;10.124;2024-03-17T05:06:53;21.13;;;4.83;;
18651;SDS011;9455;54.302;10.124;2024-03-17T05:09:20;21.60;;;3.03;;
18651;SDS011;9455;54.302;10.124;2024-03-17T05:11:46;11.70;;;2.77;;
18651;SDS011;9455;54.302;10.124;2024-03-17T05:14:14;21.40;;;3.77;;
18651;SDS011;9455;54.302;10.124;2024-03-17T05:16:41;27.37;;;6.10;;
18651;SDS011;9455;54.302;10.124;2024-03-17T05:19:08;41.60;;;9.73;;
18651;SDS011;9455;54.302;10.124;2024-03-17T05:21:34;29.40;;;7.10;;
18651;SDS011;9455;54.302;10.124;2024-03-17T05:24:01;22.97;;;5.27;;
18651;SDS011;9455;54.302;10.124;2024-03-17T05:26:28;26.37;;;5.77;;
18651;SDS011;9455;54.302;10.124;2024-03-17T05:28:55;28.27;;;6.23;;
18651;SDS011;9455;54.302;10.124;2024-03-17T05:31:23;17.87;;;3.93;;
18651;SDS011;9455;54.302;10.124;2024-03-17T05:33:50;13.40;;;3.33;;
18651;SDS011;9455;54.302;10.124;2024-03-17T05:36:17;16.77;;;3.00;;
18651;SDS011;9455;54.302;10.124;2024-03-17T05:38:45;10.33;;;3.60;;
18651;SDS011;9455;54.302;10.124;2024-03-17T05:41:11;13.63;;;2.20;;
18651;SDS011;9455;54.302;10.124;2024-03-17T05:43:38;9.10;;;2.40;;
18651;SDS011;9455;54.302;10.124;2024-03-17T05:46:05;15.70;;;2.30;;
18651;SDS011;9455;54.302;10.124;2024-03-17T05:48:35;18.77;;;3.70;;
18651;SDS011;9455;54.302;10.124;2024-03-17T05:51:03;10.20;;;2.60;;
18651;SDS011;9455;54.302;10.124;2024-03-17T05:53:30;10.60;;;2.40;;
18651;SDS011;9455;54.302;10.124;2024-03-17T05:55:58;6.23;;;1.97;;
18651;SDS011;9455;54.302;10.124;2024-03-17T05:58:24;10.70;;;2.00;;
18651;SDS011;9455;54.302;10.124;2024-03-17T06:00:51;8.50;;;1.87;;
18651;SDS011;9455;54.302;10.124;2024-03-17T06:03:18;7.73;;;2.10;;
18651;SDS011;9455;54.302;10.124;2024-03-17T06:05:46;9.93;;;2.07;;
18651;SDS011;9455;54.302;10.124;2024-03-17T06:08:13;11.07;;;2.20;;
18651;SDS011;9455;54.302;10.124;2024-03-17T06:10:42;11.17;;;1.80;;
18651;SDS011;9455;54.302;10.124;2024-03-17T06:13:10;6.13;;;1.77;;
18651;SDS011;9455;54.302;10.124;2024-03-17T06:15:38;13.37;;;1.77;;
18651;SDS011;9455;54.302;10.124;2024-03-17T06:18:05;11.07;;;2.83;;
18651;SDS011;9455;54.302;10.124;2024-03-17T06:20:34;11.73;;;1.97;;
18651;SDS011;9455;54.302;10.124;2024-03-17T06:23:02;18.87;;;2.80;;
18651;SDS011;9455;54.302;10.124;2024-03-17T06:25:29;7.90;;;1.43;;
18651;SDS011;9455;54.302;10.124;2024-03-17T06:27:55;4.33;;;1.60;;
18651;SDS011;9455;54.302;10.124;2024-03-17T06:30:22;5.23;;;2.13;;
18651;SDS011;9455;54.302;10.124;2024-03-17T06:32:49;9.03;;;1.83;;
18651;SDS011;9455;54.302;10.124;2024-03-17T06:35:15;11.67;;;2.60;;
18651;SDS011;9455;54.302;10.124;2024-03-17T06:37:43;7.80;;;2.20;;
18651;SDS011;9455;54.302;10.124;2024-03-17T06:40:12;7.20;;;1.73;;
18651;SDS011;9455;54.302;10.124;2024-03-17T06:42:40;14.40;;;2.03;;
18651;SDS011;9455;54.302;10.124;2024-03-17T06:45:07;7.40;;;1.50;;
18651;SDS011;9455;54.302;10.124;2024-03-17T06:47:34;5.10;;;1.43;;
18651;SDS011;9455;54.302;10.124;2024-03-17T06:50:01;2.80;;;1.73;;
18651;SDS011;9455;54.302;10.124;2024-03-17T06:52:28;7.40;;;1.00;;
18651;SDS011;9455;54.302;10.124;2024-03-17T06:54:54;10.27;;;1.83;;
18651;SDS011;9455;54.302;10.124;2024-03-17T06:57:22;7.10;;;0.97;;
18651;SDS011;9455;54.302;10.124;2024-03-17T06:59:49;2.57;;;1.37;;
18651;SDS011;9455;54.302;10.124;2024-03-17T07:02:16;8.77;;;1.40;;
18651;SDS011;9455;54.302;10.124;2024-03-17T07:04:43;5.90;;;1.47;;
18651;SDS011;9455;54.302;10.124;2024-03-17T07:07:09;5.33;;;1.40;;
18651;SDS011;9455;54.302;10.124;2024-03-17T07:09:37;7.17;;;1.20;;
18651;SDS011;9455;54.302;10.124;2024-03-17T07:12:04;10.23;;;1.03;;
18651;SDS011;9455;54.302;10.124;2024-03-17T07:14:32;4.13;;;1.03;;
18651;SDS011;9455;54.302;10.124;2024-03-17T07:16:58;1.93;;;0.70;;
18651;SDS011;9455;54.302;10.124;2024-03-17T07:19:25;4.13;;;0.70;;
18651;SDS011;9455;54.302;10.124;2024-03-17T07:21:52;4.53;;;0.80;;
18651;SDS011;9455;54.302;10.124;2024-03-17T07:24:19;6.00;;;1.60;;
18651;SDS011;9455;54.302;10.124;2024-03-17T07:26:47;5.13;;;0.87;;
18651;SDS011;9455;54.302;10.124;2024-03-17T07:29:14;6.60;;;0.90;;
18651;SDS011;9455;54.302;10.124;2024-03-17T07:31:42;7.73;;;0.97;;
18651;SDS011;9455;54.302;10.124;2024-03-17T07:34:08;3.53;;;1.13;;
18651;SDS011;9455;54.302;10.124;2024-03-17T07:36:35;2.93;;;0.87;;
18651;SDS011;9455;54.302;10.124;2024-03-17T07:39:02;2.43;;;0.83;;
18651;SDS011;9455;54.302;10.124;2024-03-17T07:41:28;2.70;;;0.67;;
18651;SDS011;9455;54.302;10.124;2024-03-17T07:43:55;4.50;;;0.93;;
18651;SDS011;9455;54.302;10.124;2024-03-17T07:46:22;6.83;;;1.40;;
18651;SDS011;9455;54.302;10.124;2024-03-17T07:48:50;3.93;;;0.60;;
18651;SDS011;9455;54.302;10.124;2024-03-17T07:51:17;7.00;;;0.90;;
18651;SDS011;9455;54.302;10.124;2024-03-17T07:53:46;3.37;;;1.10;;
18651;SDS011;9455;54.302;10.124;2024-03-17T07:56:14;2.07;;;0.70;;
18651;SDS011;9455;54.302;10.124;2024-03-17T07:58:41;4.40;;;0.83;;
18651;SDS011;9455;54.302;10.124;2024-03-17T08:01:10;2.20;;;0.90;;
18651;SDS011;9455;54.302;10.124;2024-03-17T08:03:38;2.73;;;0.80;;
18651;SDS011;9455;54.302;10.124;2024-03-17T08:06:07;2.37;;;0.93;;
18651;SDS011;9455;54.302;10.124;2024-03-17T08:08:36;1.47;;;0.97;;
18651;SDS011;9455;54.302;10.124;2024-03-17T08:11:03;5.67;;;0.70;;
18651;SDS011;9455;54.302;10.124;2024-03-17T08:13:30;10.80;;;1.20;;
18651;SDS011;9455;54.302;10.124;2024-03-17T08:16:00;5.00;;;1.00;;
18651;SDS011;9455;54.302;10.124;2024-03-17T08:18:28;4.73;;;1.30;;
18651;SDS011;9455;54.302;10.124;2024-03-17T08:20:55;4.37;;;1.17;;
18651;SDS011;9455;54.302;10.124;2024-03-17T08:23:23;4.90;;;0.90;;
18651;SDS011;9455;54.302;10.124;2024-03-17T08:25:53;2.00;;;0.90;;
18651;SDS011;9455;54.302;10.124;2024-03-17T08:28:20;6.27;;;1.43;;
18651;SDS011;9455;54.302;10.124;2024-03-17T08:30:52;3.87;;;0.60;;
18651;SDS011;9455;54.302;10.124;2024-03-17T08:33:19;5.93;;;0.87;;
18651;SDS011;9455;54.302;10.124;2024-03-17T08:35:54;6.33;;;0.87;;
18651;SDS011;9455;54.302;10.124;2024-03-17T08:38:21;6.33;;;1.27;;
18651;SDS011;9455;54.302;10.124;2024-03-17T08:40:49;5.30;;;0.90;;
18651;SDS011;9455;54.302;10.124;2024-03-17T08:43:16;1.67;;;0.90;;
18651;SDS011;9455;54.302;10.124;2024-03-17T08:45:43;3.77;;;0.77;;
18651;SDS011;9455;54.302;10.124;2024-03-17T08:48:10;5.67;;;1.33;;
18651;SDS011;9455;54.302;10.124;2024-03-17T08:50:36;5.67;;;0.90;;
18651;SDS011;9455;54.302;10.124;2024-03-17T08:53:03;2.20;;;1.63;;
18651;SDS011;9455;54.302;10.124;2024-03-17T08:55:30;2.63;;;1.30;;
18651;SDS011;9455;54.302;10.124;2024-03-17T08:57:58;2.50;;;0.80;;
18651;SDS011;9455;54.302;10.124;2024-03-17T09:00:25;1.70;;;1.10;;
18651;SDS011;9455;54.302;10.124;2024-03-17T09:02:51;2.37;;;1.13;;
18651;SDS011;9455;54.302;10.124;2024-03-17T09:05:18;3.20;;;0.80;;
18651;SDS011;9455;54.302;10.124;2024-03-17T09:07:44;8.70;;;1.47;;
18651;SDS011;9455;54.302;10.124;2024-03-17T09:10:11;7.77;;;1.07;;
18651;SDS011;9455;54.302;10.124;2024-03-17T09:12:38;6.73;;;1.10;;
18651;SDS011;9455;54.302;10.124;2024-03-17T09:15:07;6.17;;;1.10;;
18651;SDS011;9455;54.302;10.124;2024-03-17T09:17:36;1.70;;;0.80;;
18651;SDS011;9455;54.302;10.124;2024-03-17T09:20:04;7.13;;;1.60;;
18651;SDS011;9455;54.302;10.124;2024-03-17T09:22:36;1.83;;;1.10;;
18651;SDS011;9455;54.302;10.124;2024-03-17T09:25:04;1.20;;;0.90;;
18651;SDS011;9455;54.302;10.124;2024-03-17T09:27:32;0.80;;;0.67;;
18651;SDS011;9455;54.302;10.124;2024-03-17T09:29:59;2.50;;;1.00;;
18651;SDS011;9455;54.302;10.124;2024-03-17T09:32:27;4.30;;;1.07;;
18651;SDS011;9455;54.302;10.124;2024-03-17T09:34:53;2.53;;;0.70;;
18651;SDS011;9455;54.302;10.124;2024-03-17T09:37:20;1.33;;;1.00;;
18651;SDS011;9455;54.302;10.124;2024-03-17T09:39:46;5.50;;;1.00;;
18651;SDS011;9455;54.302;10.124;2024-03-17T09:42:15;5.77;;;1.03;;
18651;SDS011;9455;54.302;10.124;2024-03-17T09:44:44;4.10;;;1.00;;
18651;SDS011;9455;54.302;10.124;2024-03-17T09:47:12;1.70;;;0.90;;
18651;SDS011;9455;54.302;10.124;2024-03-17T09:49:46;0.80;;;0.80;;
18651;SDS011;9455;54.302;10.124;2024-03-17T09:52:15;1.03;;;0.70;;
18651;SDS011;9455;54.302;10.124;2024-03-17T09:54:46;2.87;;;0.97;;
18651;SDS011;9455;54.302;10.124;2024-03-17T09:57:16;2.53;;;0.97;;
18651;SDS011;9455;54.302;10.124;2024-03-17T09:59:43;5.70;;;1.07;;
18651;SDS011;9455;54.302;10.124;2024-03-17T10:02:17;1.57;;;0.70;;
18651;SDS011;9455;54.302;10.124;2024-03-17T10:04:45;4.37;;;0.60;;
18651;SDS011;9455;54.302;10.124;2024-03-17T10:07:12;1.27;;;0.80;;
18651;SDS011;9455;54.302;10.124;2024-03-17T10:09:39;3.20;;;1.10;;
18651;SDS011;9455;54.302;10.124;2024-03-17T10:12:08;3.70;;;0.90;;
18651;SDS011;9455;54.302;10.124;2024-03-17T10:14:57;1.30;;;1.00;;
18651;SDS011;9455;54.302;10.124;2024-03-17T10:17:29;3.50;;;1.03;;
18651;SDS011;9455;54.302;10.124;2024-03-17T10:20:06;4.63;;;1.03;;
18651;SDS011;9455;54.302;10.124;2024-03-17T10:25:33;0.80;;;0.80;;
18651;SDS011;9455;54.302;10.124;2024-03-17T10:28:11;1.43;;;1.33;;
18651;SDS011;9455;54.302;10.124;2024-03-17T10:30:39;3.47;;;1.10;;
18651;SDS011;9455;54.302;10.124;2024-03-17T10:33:07;8.70;;;0.97;;
18651;SDS011;9455;54.302;10.124;2024-03-17T10:35:51;2.83;;;1.83;;
18651;SDS011;9455;54.302;10.124;2024-03-17T10:38:25;3.47;;;0.90;;
18651;SDS011;9455;54.302;10.124;2024-03-17T10:40:52;3.30;;;1.00;;
18651;SDS011;9455;54.302;10.124;2024-03-17T10:43:19;2.70;;;1.00;;
18651;SDS011;9455;54.302;10.124;2024-03-17T10:45:49;3.17;;;1.37;;
18651;SDS011;9455;54.302;10.124;2024-03-17T10:48:19;2.77;;;0.80;;
18651;SDS011;9455;54.302;10.124;2024-03-17T10:50:49;3.20;;;1.17;;
18651;SDS011;9455;54.302;10.124;2024-03-17T10:53:20;3.73;;;1.03;;
18651;SDS011;9455;54.302;10.124;2024-03-17T10:55:51;3.10;;;1.00;;
18651;SDS011;9455;54.302;10.124;2024-03-17T10:58:28;3.53;;;0.83;;
18651;SDS011;9455;54.302;10.124;2024-03-17T11:01:01;4.90;;;1.20;;
18651;SDS011;9455;54.302;10.124;2024-03-17T11:03:29;5.13;;;1.03;;
18651;SDS011;9455;54.302;10.124;2024-03-17T11:05:58;5.63;;;1.40;;
18651;SDS011;9455;54.302;10.124;2024-03-17T11:08:26;5.50;;;0.87;;
18651;SDS011;9455;54.302;10.124;2024-03-17T11:10:53;0.97;;;0.97;;
18651;SDS011;9455;54.302;10.124;2024-03-17T11:13:23;4.20;;;2.13;;
18651;SDS011;9455;54.302;10.124;2024-03-17T11:15:51;4.13;;;1.33;;
18651;SDS011;9455;54.302;10.124;2024-03-17T11:18:28;4.10;;;0.80;;
18651;SDS011;9455;54.302;10.124;2024-03-17T11:20:58;4.23;;;0.90;;
18651;SDS011;9455;54.302;10.124;2024-03-17T11:23:28;1.70;;;1.13;;
18651;SDS011;9455;54.302;10.124;2024-03-17T11:25:56;1.83;;;0.70;;
18651;SDS011;9455;54.302;10.124;2024-03-17T11:31:33;3.10;;;0.90;;
18651;SDS011;9455;54.302;10.124;2024-03-17T11:34:27;2.40;;;0.73;;
18651;SDS011;9455;54.302;10.124;2024-03-17T11:36:59;2.83;;;1.23;;
18651;SDS011;9455;54.302;10.124;2024-03-17T11:42:22;0.87;;;0.70;;
18651;SDS011;9455;54.302;10.124;2024-03-17T11:44:58;3.13;;;0.70;;
18651;SDS011;9455;54.302;10.124;2024-03-17T11:47:32;1.97;;;1.17;;
18651;SDS011;9455;54.302;10.124;2024-03-17T11:50:01;1.07;;;0.90;;
18651;SDS011;9455;54.302;10.124;2024-03-17T11:52:28;1.20;;;1.07;;
18651;SDS011;9455;54.302;10.124;2024-03-17T11:54:55;4.53;;;1.10;;
18651;SDS011;9455;54.302;10.124;2024-03-17T11:57:23;4.57;;;1.43;;
18651;SDS011;9455;54.302;10.124;2024-03-17T11:59:49;3.43;;;0.90;;
18651;SDS011;9455;54.302;10.124;2024-03-17T12:02:18;2.07;;;0.70;;
18651;SDS011;9455;54.302;10.124;2024-03-17T12:04:45;7.23;;;1.00;;
18651;SDS011;9455;54.302;10.124;2024-03-17T12:07:12;5.03;;;1.20;;
18651;SDS011;9455;54.302;10.124;2024-03-17T12:09:40;1.43;;;1.00;;
18651;SDS011;9455;54.302;10.124;2024-03-17T12:12:09;2.77;;;0.90;;
18651;SDS011;9455;54.302;10.124;2024-03-17T12:14:38;0.80;;;0.80;;
18651;SDS011;9455;54.302;10.124;2024-03-17T12:17:07;2.00;;;1.00;;
18651;SDS011;9455;54.302;10.124;2024-03-17T12:19:35;1.37;;;1.00;;
18651;SDS011;9455;54.302;10.124;2024-03-17T12:22:03;1.03;;;0.93;;
18651;SDS011;9455;54.302;10.124;2024-03-17T12:24:31;1.40;;;0.87;;
18651;SDS011;9455;54.302;10.124;2024-03-17T12:26:59;12.07;;;1.30;;
18651;SDS011;9455;54.302;10.124;2024-03-17T12:29:30;2.53;;;0.90;;
18651;SDS011;9455;54.302;10.124;2024-03-17T12:31:58;2.47;;;0.90;;
18651;SDS011;9455;54.302;10.124;2024-03-17T12:34:26;10.00;;;1.60;;
18651;SDS011;9455;54.302;10.124;2024-03-17T12:36:54;3.80;;;0.90;;
18651;SDS011;9455;54.302;10.124;2024-03-17T12:39:22;0.93;;;0.93;;
18651;SDS011;9455;54.302;10.124;2024-03-17T12:42:01;1.00;;;1.00;;
18651;SDS011;9455;54.302;10.124;2024-03-17T12:44:30;1.33;;;0.80;;
18651;SDS011;9455;54.302;10.124;2024-03-17T12:46:57;6.00;;;1.10;;
18651;SDS011;9455;54.302;10.124;2024-03-17T12:49:25;2.57;;;1.30;;
18651;SDS011;9455;54.302;10.124;2024-03-17T12:51:51;2.20;;;0.90;;
18651;SDS011;9455;54.302;10.124;2024-03-17T12:54:19;3.63;;;0.80;;
18651;SDS011;9455;54.302;10.124;2024-03-17T12:56:46;1.00;;;1.00;;
18651;SDS011;9455;54.302;10.124;2024-03-17T12:59:37;2.63;;;1.00;;
18651;SDS011;9455;54.302;10.124;2024-03-17T13:02:34;3.80;;;1.00;;
18651;SDS011;9455;54.302;10.124;2024-03-17T13:05:07;3.30;;;1.03;;
18651;SDS011;9455;54.302;10.124;2024-03-17T13:07:40;3.20;;;1.10;;
18651;SDS011;9455;54.302;10.124;2024-03-17T13:10:07;4.07;;;1.23;;
18651;SDS011;9455;54.302;10.124;2024-03-17T13:12:34;4.20;;;1.23;;
18651;SDS011;9455;54.302;10.124;2024-03-17T13:15:02;2.07;;;1.03;;
18651;SDS011;9455;54.302;10.124;2024-03-17T13:17:30;0.93;;;0.87;;
18651;SDS011;9455;54.302;10.124;2024-03-17T13:19:58;1.17;;;0.87;;
18651;SDS011;9455;54.302;10.124;2024-03-17T13:22:25;10.03;;;2.13;;
18651;SDS011;9455;54.302;10.124;2024-03-17T13:24:52;1.27;;;1.10;;
18651;SDS011;9455;54.302;10.124;2024-03-17T13:27:18;0.90;;;0.80;;
18651;SDS011;9455;54.302;10.124;2024-03-17T13:29:47;1.30;;;0.83;;
18651;SDS011;9455;54.302;10.124;2024-03-17T13:32:16;0.53;;;0.53;;
18651;SDS011;9455;54.302;10.124;2024-03-17T13:34:43;1.73;;;0.90;;
18651;SDS011;9455;54.302;10.124;2024-03-17T13:37:10;3.50;;;1.10;;
18651;SDS011;9455;54.302;10.124;2024-03-17T13:39:37;0.73;;;0.73;;
18651;SDS011;9455;54.302;10.124;2024-03-17T13:42:04;0.70;;;0.70;;
18651;SDS011;9455;54.302;10.124;2024-03-17T13:44:31;0.87;;;0.87;;
18651;SDS011;9455;54.302;10.124;2024-03-17T13:46:58;1.70;;;0.80;;
18651;SDS011;9455;54.302;10.124;2024-03-17T13:49:47;0.90;;;0.90;;
18651;SDS011;9455;54.302;10.124;2024-03-17T13:52:13;2.87;;;0.90;;
18651;SDS011;9455;54.302;10.124;2024-03-17T13:54:40;1.10;;;1.00;;
18651;SDS011;9455;54.302;10.124;2024-03-17T13:57:06;2.20;;;0.80;;
18651;SDS011;9455;54.302;10.124;2024-03-17T13:59:33;1.17;;;0.97;;
18651;SDS011;9455;54.302;10.124;2024-03-17T14:02:01;5.40;;;0.80;;
18651;SDS011;9455;54.302;10.124;2024-03-17T14:04:28;1.60;;;1.20;;
18651;SDS011;9455;54.302;10.124;2024-03-17T14:06:56;2.13;;;0.90;;
18651;SDS011;9455;54.302;10.124;2024-03-17T14:09:23;3.70;;;0.67;;
18651;SDS011;9455;54.302;10.124;2024-03-17T14:11:49;3.60;;;0.87;;
18651;SDS011;9455;54.302;10.124;2024-03-17T14:14:16;1.33;;;1.00;;
18651;SDS011;9455;54.302;10.124;2024-03-17T14:16:43;3.67;;;1.00;;
18651;SDS011;9455;54.302;10.124;2024-03-17T14:19:10;1.00;;;0.80;;
18651;SDS011;9455;54.302;10.124;2024-03-17T14:21:37;1.00;;;1.00;;
18651;SDS011;9455;54.302;10.124;2024-03-17T14:24:05;1.57;;;0.70;;
18651;SDS011;9455;54.302;10.124;2024-03-17T14:26:34;3.70;;;1.00;;
18651;SDS011;9455;54.302;10.124;2024-03-17T14:29:01;0.70;;;0.70;;
18651;SDS011;9455;54.302;10.124;2024-03-17T14:31:29;0.70;;;0.70;;
18651;SDS011;9455;54.302;10.124;2024-03-17T14:33:57;1.50;;;0.80;;
18651;SDS011;9455;54.302;10.124;2024-03-17T14:36:24;4.90;;;0.63;;
18651;SDS011;9455;54.302;10.124;2024-03-17T14:38:52;2.10;;;0.77;;
18651;SDS011;9455;54.302;10.124;2024-03-17T14:41:20;0.60;;;0.60;;
18651;SDS011;9455;54.302;10.124;2024-03-17T14:43:47;0.80;;;0.80;;
18651;SDS011;9455;54.302;10.124;2024-03-17T14:46:14;2.97;;;0.80;;
18651;SDS011;9455;54.302;10.124;2024-03-17T14:48:42;1.17;;;0.90;;
18651;SDS011;9455;54.302;10.124;2024-03-17T14:51:09;3.03;;;0.80;;
18651;SDS011;9455;54.302;10.124;2024-03-17T14:53:36;3.93;;;0.80;;
18651;SDS011;9455;54.302;10.124;2024-03-17T14:56:07;1.93;;;0.67;;